Time;durP1;ratioP1;P1;durP2;ratioP2;P2;SDS_P1;SDS_P2;PMS_P1;PMS_P2;Temp;Humidity;BMP_temperature;BMP_pressure;BME280_temperature;BME280_humidity;BME280_pressure;Samples;Min_cycle;Max_cycle;Signal;HPM_P1;HPM_P2
2021/09/12 00:00:20;;;;;;;5.83;3.73;;;;;;;16.61;56.65;94881.38;5033238;28;20442;-80
2021/09/12 00:02:49;;;;;;;7.60;4.00;;;;;;;16.69;56.47;94873.44;5033216;28;20485;-80
2021/09/12 00:05:16;;;;;;;5.13;4.00;;;;;;;16.79;57.11;94875.94;5033127;28;20451;-80
2021/09/12 00:07:43;;;;;;;7.80;3.47;;;;;;;16.92;56.65;94878.03;5033138;28;20446;-81
2021/09/12 00:10:11;;;;;;;7.63;3.70;;;;;;;17.02;55.94;94870.72;5033078;28;20452;-80
2021/09/12 00:12:38;;;;;;;4.47;3.60;;;;;;;17.09;56.39;94877.03;5032834;28;20456;-80
2021/09/12 00:15:07;;;;;;;5.80;4.43;;;;;;;17.16;56.27;94878.00;5032843;28;20450;-80
2021/09/12 00:17:34;;;;;;;4.10;3.70;;;;;;;17.19;55.83;94877.66;5033003;28;20481;-80
2021/09/12 00:20:03;;;;;;;5.17;3.63;;;;;;;17.21;55.37;94875.66;5032772;28;20206;-80
2021/09/12 00:22:29;;;;;;;12.53;4.50;;;;;;;17.27;55.87;94877.59;5032928;28;20473;-80
2021/09/12 00:24:56;;;;;;;7.47;4.40;;;;;;;17.31;56.19;94873.59;5014091;28;20938;-80
2021/09/12 00:27:24;;;;;;;5.07;3.90;;;;;;;17.32;55.84;94869.13;5032523;28;20442;-80
2021/09/12 00:29:50;;;;;;;4.60;3.60;;;;;;;17.34;55.03;94873.25;5033098;28;20486;-80
2021/09/12 00:32:17;;;;;;;5.30;4.40;;;;;;;17.30;55.20;94866.66;5032776;28;20811;-80
2021/09/12 00:34:44;;;;;;;4.50;4.10;;;;;;;17.34;55.34;94872.44;5032542;28;20537;-80
2021/09/12 00:37:13;;;;;;;4.50;4.10;;;;;;;17.36;55.27;94869.66;5032462;28;20447;-81
2021/09/12 00:39:40;;;;;;;6.07;4.10;;;;;;;17.41;55.76;94872.59;5032517;28;20453;-80
2021/09/12 00:42:07;;;;;;;6.67;4.10;;;;;;;17.42;55.21;94871.59;5032454;28;20452;-80
2021/09/12 00:44:34;;;;;;;4.57;4.17;;;;;;;17.41;55.51;94872.59;5032438;28;20484;-80
2021/09/12 00:47:11;;;;;;;6.50;4.40;;;;;;;17.43;55.51;94874.09;5032555;28;20441;-81
2021/09/12 00:49:38;;;;;;;4.37;3.97;;;;;;;17.44;55.77;94872.25;5032381;28;20458;-80
2021/09/12 00:52:09;;;;;;;5.47;4.20;;;;;;;17.48;56.14;94878.88;5032656;28;20527;-80
2021/09/12 00:54:39;;;;;;;6.53;4.70;;;;;;;17.51;55.93;94878.50;5032739;28;20923;-81
2021/09/12 00:57:09;;;;;;;8.10;5.03;;;;;;;17.56;55.55;94881.47;5032257;28;21031;-80
2021/09/12 00:59:37;;;;;;;6.33;4.60;;;;;;;17.59;55.67;94878.47;5032618;28;20805;-80
2021/09/12 01:02:04;;;;;;;4.90;4.40;;;;;;;17.49;55.50;94877.88;5032328;28;20830;-80
2021/09/12 01:04:31;;;;;;;7.37;3.80;;;;;;;17.42;55.50;94871.59;5032108;28;20852;-80
2021/09/12 01:06:59;;;;;;;4.97;4.40;;;;;;;17.37;55.15;94872.13;5013799;28;21001;-81
2021/09/12 01:09:26;;;;;;;7.50;4.93;;;;;;;17.27;55.87;94866.16;5032497;28;20439;-80
2021/09/12 01:11:58;;;;;;;5.57;4.40;;;;;;;17.24;56.42;94872.66;5032110;28;20452;-80
2021/09/12 01:14:27;;;;;;;7.23;4.83;;;;;;;17.26;56.46;94878.59;5032123;28;20447;-80
2021/09/12 01:16:54;;;;;;;4.43;4.03;;;;;;;17.18;56.65;94883.94;5032328;28;20451;-81
2021/09/12 01:19:21;;;;;;;12.00;4.50;;;;;;;17.10;56.18;94881.31;5032057;28;20457;-81
2021/09/12 01:21:49;;;;;;;5.07;4.37;;;;;;;17.05;57.21;94883.63;5032201;28;20950;-80
2021/09/12 01:24:17;;;;;;;4.70;4.27;;;;;;;17.00;58.23;94883.31;5032072;28;20584;-81
2021/09/12 01:26:44;;;;;;;5.23;4.70;;;;;;;17.00;57.55;94883.31;5032293;28;20455;-80
2021/09/12 01:29:15;;;;;;;4.87;4.20;;;;;;;17.00;58.09;94886.78;5031849;28;20442;-80
2021/09/12 01:31:42;;;;;;;6.73;4.80;;;;;;;17.03;58.07;94888.28;5031904;28;20455;-81
2021/09/12 01:34:09;;;;;;;4.97;4.57;;;;;;;17.03;57.75;94889.09;5032166;28;20442;-80
2021/09/12 01:36:36;;;;;;;4.77;4.33;;;;;;;16.94;58.05;94887.47;5032325;28;20536;-80
2021/09/12 01:39:03;;;;;;;5.13;4.73;;;;;;;16.91;58.24;94877.22;5031795;28;20449;-80
2021/09/12 01:41:32;;;;;;;5.10;4.20;;;;;;;16.85;59.14;94879.72;5031983;28;20443;-80
2021/09/12 01:44:01;;;;;;;9.57;4.70;;;;;;;16.80;58.37;94879.41;5031888;28;20492;-80
2021/09/12 01:46:30;;;;;;;5.23;4.73;;;;;;;16.77;58.82;94879.72;5031643;28;20454;-81
2021/09/12 01:48:59;;;;;;;5.90;4.50;;;;;;;16.79;59.02;94880.41;5032130;28;20450;-81
2021/09/12 01:51:26;;;;;;;7.90;5.10;;;;;;;16.78;59.31;94889.34;5035756;28;20452;-80
2021/09/12 01:53:53;;;;;;;7.60;5.40;;;;;;;16.73;58.84;94885.34;5035378;28;20485;-80
2021/09/12 01:56:20;;;;;;;7.53;5.40;;;;;;;16.62;58.64;94888.31;5035358;28;20453;-81
2021/09/12 01:58:48;;;;;;;15.73;5.20;;;;;;;16.63;58.88;94887.34;5035467;28;20517;-81
2021/09/12 02:01:15;;;;;;;5.80;5.17;;;;;;;16.52;59.50;94892.97;5035295;28;20440;-80
2021/09/12 02:03:42;;;;;;;5.47;4.33;;;;;;;16.57;59.36;94888.00;5035440;28;20497;-80
2021/09/12 02:06:09;;;;;;;5.77;4.80;;;;;;;16.53;58.88;94878.75;5035256;28;20468;-80
2021/09/12 02:08:36;;;;;;;7.93;5.00;;;;;;;16.58;58.64;94884.38;5035607;28;20525;-80
2021/09/12 02:11:03;;;;;;;11.17;5.40;;;;;;;16.58;59.50;94886.19;5035268;28;20452;-80
2021/09/12 02:13:30;;;;;;;4.60;4.10;;;;;;;16.44;59.77;94882.38;5035009;28;20498;-81
2021/09/12 02:15:59;;;;;;;6.23;5.60;;;;;;;16.31;59.86;94884.69;5035293;28;20445;-80
2021/09/12 02:18:26;;;;;;;7.63;4.80;;;;;;;16.15;59.99;94879.38;5034923;28;20440;-81
2021/09/12 02:20:53;;;;;;;6.27;4.97;;;;;;;16.10;60.90;94883.34;5035296;28;20525;-80
2021/09/12 02:23:19;;;;;;;5.90;4.87;;;;;;;16.09;60.72;94875.56;5035081;28;20453;-80
2021/09/12 02:25:46;;;;;;;6.77;4.90;;;;;;;16.11;60.54;94882.34;5034936;28;20449;-80
2021/09/12 02:28:13;;;;;;;7.87;4.60;;;;;;;16.16;60.81;94879.22;5016403;28;20452;-80
2021/09/12 02:30:41;;;;;;;9.90;5.40;;;;;;;16.08;61.09;94882.69;5034869;28;20965;-81
2021/09/12 02:33:10;;;;;;;10.53;4.70;;;;;;;16.14;60.64;94877.72;5034849;28;20456;-81
2021/09/12 02:35:37;;;;;;;8.03;4.93;;;;;;;16.21;60.39;94878.75;5035106;28;20440;-80
2021/09/12 02:38:04;;;;;;;7.63;4.90;;;;;;;16.26;60.80;94877.25;5034719;28;20525;-80
2021/09/12 02:40:31;;;;;;;8.07;5.53;;;;;;;16.23;60.05;94871.47;5034602;28;20525;-81
2021/09/12 02:42:58;;;;;;;7.43;5.17;;;;;;;16.16;60.47;94881.03;5034843;28;20442;-80
2021/09/12 02:45:25;;;;;;;5.20;4.70;;;;;;;16.20;60.88;94882.38;5034589;28;20996;-80
2021/09/12 02:47:51;;;;;;;5.37;4.60;;;;;;;16.20;60.37;94869.97;5034602;28;20533;-80
2021/09/12 02:50:20;;;;;;;5.47;4.43;;;;;;;16.25;59.97;94867.66;5034873;28;20550;-80
2021/09/12 02:52:47;;;;;;;22.13;6.67;;;;;;;16.24;59.95;94865.16;5032338;28;20480;-80
2021/09/12 02:55:14;;;;;;;8.60;5.33;;;;;;;16.30;60.60;94867.16;5034283;28;20802;-80
2021/09/12 02:57:40;;;;;;;7.27;4.90;;;;;;;16.35;59.97;94870.94;5034425;28;20439;-80
2021/09/12 03:00:09;;;;;;;4.93;4.50;;;;;;;16.38;60.15;94864.50;5015486;28;20456;-80
2021/09/12 03:02:36;;;;;;;7.57;5.07;;;;;;;16.39;60.34;94874.09;5034263;28;20455;-81
2021/09/12 03:05:03;;;;;;;5.60;4.50;;;;;;;16.37;59.56;94873.44;5033949;28;20482;-80
2021/09/12 03:07:31;;;;;;;7.93;5.90;;;;;;;16.34;59.71;94865.81;5034263;28;20535;-80
2021/09/12 03:09:58;;;;;;;8.40;5.80;;;;;;;16.08;60.08;94877.38;5034529;28;20827;-80
2021/09/12 03:12:25;;;;;;;7.83;5.50;;;;;;;15.95;60.69;94868.28;5034128;28;20449;-80
2021/09/12 03:14:52;;;;;;;5.07;4.50;;;;;;;15.78;61.55;94880.66;5034378;28;20816;-80
2021/09/12 03:17:19;;;;;;;8.33;5.70;;;;;;;15.66;61.64;94890.72;5034332;28;20547;-80
2021/09/12 03:19:46;;;;;;;8.23;4.73;;;;;;;15.48;61.88;94889.94;5033982;28;20450;-80
2021/09/12 03:22:13;;;;;;;7.33;4.90;;;;;;;15.53;62.89;94884.19;5033977;28;20447;-80
2021/09/12 03:24:44;;;;;;;4.60;4.20;;;;;;;15.66;62.22;94889.88;5033771;28;20485;-80
2021/09/12 03:27:11;;;;;;;5.77;5.20;;;;;;;15.69;61.29;94889.56;5034001;28;20453;-80
2021/09/12 03:29:38;;;;;;;7.13;5.20;;;;;;;15.73;60.93;94897.00;5033885;28;21048;-80
2021/09/12 03:32:06;;;;;;;7.67;5.30;;;;;;;15.64;60.85;94900.63;5033770;28;20452;-80
2021/09/12 03:34:33;;;;;;;10.00;6.40;;;;;;;15.67;61.06;94902.13;5031816;28;20458;-80
2021/09/12 03:37:00;;;;;;;7.60;5.80;;;;;;;15.60;62.36;94895.78;5015240;28;20439;-80
2021/09/12 03:39:27;;;;;;;7.30;5.67;;;;;;;15.61;62.28;94887.72;5015168;28;20518;-80
2021/09/12 03:41:55;;;;;;;7.10;5.07;;;;;;;15.68;62.70;94886.09;5033590;28;20534;-80
2021/09/12 03:44:22;;;;;;;7.10;5.90;;;;;;;15.77;62.80;94886.94;5014908;28;20486;-80
2021/09/12 03:46:49;;;;;;;7.70;5.67;;;;;;;15.88;62.62;94894.56;5033579;28;20936;-80
2021/09/12 03:49:16;;;;;;;7.60;6.10;;;;;;;15.88;61.90;94889.25;5033286;28;20443;-80
2021/09/12 03:51:43;;;;;;;6.03;5.43;;;;;;;15.92;61.96;94898.56;5033331;28;20866;-80
2021/09/12 03:54:10;;;;;;;6.70;6.10;;;;;;;15.97;61.78;94898.91;5033419;28;20485;-80
2021/09/12 03:56:37;;;;;;;6.20;5.60;;;;;;;16.01;61.83;94889.63;5033423;28;20961;-80
2021/09/12 03:59:05;;;;;;;8.87;6.20;;;;;;;16.06;61.34;94903.19;5014888;28;20449;-80
2021/09/12 04:01:32;;;;;;;6.90;5.80;;;;;;;16.10;61.54;94901.06;5014784;28;20972;-80
2021/09/12 04:03:59;;;;;;;9.10;6.80;;;;;;;16.15;62.03;94911.97;5033026;28;20583;-80
2021/09/12 04:06:26;;;;;;;8.77;6.07;;;;;;;16.18;61.05;94911.63;5033255;28;20448;-80
2021/09/12 04:08:54;;;;;;;7.10;6.40;;;;;;;16.20;60.80;94908.88;5032948;28;20457;-80
2021/09/12 04:11:22;;;;;;;7.73;6.00;;;;;;;16.24;60.98;94915.47;5033236;28;20438;-80
2021/09/12 04:13:49;;;;;;;7.00;6.30;;;;;;;16.24;61.15;94915.47;5032506;28;20452;-80
2021/09/12 04:16:17;;;;;;;7.90;6.53;;;;;;;16.28;60.92;94911.50;5032915;28;20532;-80
2021/09/12 04:18:44;;;;;;;8.47;5.83;;;;;;;16.42;60.39;94905.53;5033176;28;20528;-80
2021/09/12 04:21:11;;;;;;;6.27;5.60;;;;;;;16.76;58.90;94912.50;5033171;28;20576;-80
2021/09/12 04:23:38;;;;;;;9.93;5.30;;;;;;;17.19;56.90;94906.00;5032787;28;20986;-80
2021/09/12 04:26:05;;;;;;;9.20;5.27;;;;;;;17.73;55.45;94908.81;5032684;28;20490;-81
2021/09/12 04:28:32;;;;;;;7.80;5.40;;;;;;;18.12;53.92;94903.44;5030721;28;20657;-80
2021/09/12 04:30:59;;;;;;;13.80;8.50;;;;;;;18.42;52.80;94901.72;5032753;28;20447;-80
2021/09/12 04:33:28;;;;;;;11.93;8.97;;;;;;;18.53;51.92;94907.47;5032505;28;20448;-80
2021/09/12 04:35:55;;;;;;;10.13;7.30;;;;;;;18.56;52.06;94908.94;5032554;28;20459;-80
2021/09/12 04:38:22;;;;;;;8.50;7.27;;;;;;;18.55;52.58;94905.47;5032731;28;20563;-80
2021/09/12 04:40:49;;;;;;;10.33;6.10;;;;;;;18.57;51.43;94902.63;5032584;28;20443;-80
2021/09/12 04:43:16;;;;;;;7.77;6.30;;;;;;;18.55;52.22;94910.78;5032605;28;20474;-80
2021/09/12 04:45:43;;;;;;;9.10;6.83;;;;;;;18.49;51.96;94911.47;5030258;28;20530;-80
2021/09/12 04:48:10;;;;;;;9.33;6.30;;;;;;;18.33;53.38;94910.78;5032789;28;20445;-80
2021/09/12 04:50:39;;;;;;;17.50;6.77;;;;;;;18.15;54.14;94916.38;5032907;28;20448;-80
2021/09/12 04:53:06;;;;;;;8.13;5.93;;;;;;;18.02;54.92;94913.47;5013787;28;21069;-81
2021/09/12 04:55:33;;;;;;;10.27;6.30;;;;;;;17.81;54.87;94914.91;5032447;28;20539;-81
2021/09/12 04:57:59;;;;;;;14.03;6.40;;;;;;;17.60;55.76;94918.09;5032473;28;20450;-80
2021/09/12 05:00:27;;;;;;;10.70;7.53;;;;;;;18.00;55.74;94926.91;5013987;28;20446;-80
2021/09/12 05:02:54;;;;;;;6.23;5.63;;;;;;;18.54;53.61;94925.06;5032477;28;20444;-80
2021/09/12 05:05:21;;;;;;;9.80;6.00;;;;;;;19.12;52.25;94922.78;5013600;28;20565;-80
2021/09/12 05:07:49;;;;;;;9.83;5.80;;;;;;;19.61;51.04;94917.75;5032337;28;20444;-81
2021/09/12 05:10:16;;;;;;;9.20;5.70;;;;;;;20.12;49.50;94920.44;5032069;28;20445;-81
2021/09/12 05:12:43;;;;;;;8.00;5.50;;;;;;;20.42;47.74;94916.69;5032100;28;20456;-81
2021/09/12 05:15:11;;;;;;;7.60;5.23;;;;;;;20.35;47.34;94920.28;5031995;28;20454;-81
2021/09/12 05:17:37;;;;;;;7.03;5.43;;;;;;;20.29;47.19;94919.19;5013621;28;20458;-81
2021/09/12 05:20:06;;;;;;;8.33;5.80;;;;;;;20.27;47.01;94923.91;5013625;28;20450;-80
2021/09/12 05:22:34;;;;;;;11.13;6.00;;;;;;;20.09;47.50;94928.81;5032187;28;20787;-80
2021/09/12 05:25:02;;;;;;;11.47;6.17;;;;;;;19.87;47.83;94921.75;5033717;28;20571;-80
2021/09/12 05:27:29;;;;;;;8.00;4.87;;;;;;;19.86;47.25;94926.28;5036430;28;20450;-80
2021/09/12 05:29:56;;;;;;;12.20;6.20;;;;;;;19.93;47.66;94924.50;5037057;28;20527;-81
2021/09/12 05:32:23;;;;;;;5.80;5.30;;;;;;;19.83;47.51;94923.16;5017555;28;20440;-81
2021/09/12 05:34:50;;;;;;;5.20;4.70;;;;;;;20.17;47.42;94923.34;5017420;28;20936;-81
2021/09/12 05:37:17;;;;;;;8.23;5.43;;;;;;;20.53;47.37;94925.19;5035769;28;20564;-81
2021/09/12 05:39:44;;;;;;;6.00;5.30;;;;;;;20.66;45.75;94925.31;5035871;28;20456;-81
2021/09/12 05:42:12;;;;;;;6.47;5.40;;;;;;;20.85;45.34;94930.03;5036004;28;20449;-81
2021/09/12 05:44:39;;;;;;;6.20;5.70;;;;;;;21.02;45.51;94923.38;5035814;28;20846;-81
2021/09/12 05:47:06;;;;;;;5.30;4.57;;;;;;;21.11;44.36;94921.41;5035737;28;20934;-81
2021/09/12 05:49:33;;;;;;;6.50;5.90;;;;;;;21.61;44.67;94928.31;5017216;28;20443;-81
2021/09/12 05:52:00;;;;;;;11.73;5.10;;;;;;;21.72;43.06;94926.16;5017105;28;20475;-81
2021/09/12 05:54:27;;;;;;;5.70;5.20;;;;;;;21.92;43.04;94929.72;5035717;28;20796;-81
2021/09/12 05:56:54;;;;;;;5.87;5.27;;;;;;;21.99;43.27;94927.09;5035628;28;20202;-81
2021/09/12 05:59:22;;;;;;;7.07;4.77;;;;;;;21.57;44.29;94927.06;5035810;28;20832;-81
2021/09/12 06:01:49;;;;;;;6.57;5.53;;;;;;;21.54;44.97;94938.16;5035289;28;20522;-81
2021/09/12 06:04:16;;;;;;;14.23;5.10;;;;;;;21.27;45.00;94926.47;5035262;28;20446;-81
2021/09/12 06:06:43;;;;;;;6.03;5.17;;;;;;;21.73;45.55;94925.94;5035315;28;20967;-81
2021/09/12 06:09:10;;;;;;;5.10;4.70;;;;;;;22.25;43.37;94930.69;5035485;28;20497;-81
2021/09/12 06:11:37;;;;;;;7.03;5.57;;;;;;;22.39;42.68;94925.41;5035353;28;20531;-81
2021/09/12 06:14:04;;;;;;;8.00;4.87;;;;;;;22.56;42.97;94935.53;5035176;28;20442;-81
2021/09/12 06:16:32;;;;;;;11.00;4.77;;;;;;;22.64;40.84;94934.50;5035391;28;20726;-81
2021/09/12 06:18:59;;;;;;;5.20;4.70;;;;;;;22.63;41.75;94932.88;5035538;28;20522;-81
2021/09/12 06:21:26;;;;;;;5.67;5.17;;;;;;;22.91;42.27;94940.75;5035159;28;20448;-81
2021/09/12 06:23:53;;;;;;;5.63;5.13;;;;;;;23.16;41.21;94944.47;5034941;28;20440;-81
2021/09/12 06:26:20;;;;;;;6.43;5.40;;;;;;;23.34;40.47;94941.16;5035116;28;20485;-81
2021/09/12 06:28:49;;;;;;;5.07;4.33;;;;;;;23.46;40.90;94934.16;5034818;28;20939;-81
2021/09/12 06:31:16;;;;;;;9.60;6.10;;;;;;;23.77;40.10;94928.13;5034934;28;20525;-81
2021/09/12 06:33:44;;;;;;;10.20;5.13;;;;;;;23.83;39.64;94928.31;5032660;28;20544;-81
2021/09/12 06:36:12;;;;;;;9.97;4.90;;;;;;;23.31;40.81;94925.50;5034272;28;20457;-81
2021/09/12 06:38:41;;;;;;;5.83;4.73;;;;;;;23.53;40.58;94930.63;5034639;28;21014;-81
2021/09/12 06:41:11;;;;;;;8.37;5.10;;;;;;;23.66;40.37;94938.66;5034829;28;20445;-81
2021/09/12 06:43:38;;;;;;;6.43;5.10;;;;;;;24.04;40.19;94931.56;5034842;28;20465;-81
2021/09/12 06:46:06;;;;;;;8.53;5.20;;;;;;;24.44;38.93;94926.03;5034473;28;20491;-81
2021/09/12 06:48:33;;;;;;;6.30;4.60;;;;;;;24.73;37.96;94930.00;5034894;28;20513;-81
2021/09/12 06:51:01;;;;;;;6.23;5.00;;;;;;;24.87;37.71;94928.88;5034829;28;20453;-81
2021/09/12 06:53:28;;;;;;;5.80;4.90;;;;;;;24.97;38.17;94936.44;5034759;28;20471;-81
2021/09/12 06:55:55;;;;;;;7.03;5.13;;;;;;;24.97;38.11;94931.06;5034483;28;20858;-81
2021/09/12 06:58:22;;;;;;;5.97;5.00;;;;;;;25.14;38.10;94932.19;5034452;28;20444;-81
2021/09/12 07:00:49;;;;;;;6.10;5.40;;;;;;;25.13;37.99;94935.91;5034702;28;20449;-81
2021/09/12 07:03:16;;;;;;;6.60;4.87;;;;;;;25.05;37.74;94925.44;5034526;28;20443;-81
2021/09/12 07:05:43;;;;;;;6.53;5.00;;;;;;;24.65;37.84;94933.75;5034640;28;20583;-81
2021/09/12 07:08:11;;;;;;;5.70;5.17;;;;;;;24.69;38.53;94932.28;5034261;28;20453;-81
2021/09/12 07:10:38;;;;;;;5.80;4.23;;;;;;;24.84;37.08;94928.47;5034243;28;20444;-81
2021/09/12 07:13:05;;;;;;;8.90;4.70;;;;;;;25.06;37.17;94935.16;5034181;28;20444;-81
2021/09/12 07:15:32;;;;;;;5.50;4.57;;;;;;;25.33;35.51;94936.59;5015702;28;20459;-81
2021/09/12 07:17:59;;;;;;;5.03;4.50;;;;;;;25.44;34.46;94936.91;5015568;28;20809;-81
2021/09/12 07:20:26;;;;;;;7.87;4.60;;;;;;;25.40;34.93;94938.38;5015626;28;20539;-81
2021/09/12 07:22:53;;;;;;;8.20;4.90;;;;;;;25.24;35.08;94927.16;5015631;28;20455;-81
2021/09/12 07:25:22;;;;;;;6.20;4.10;;;;;;;25.29;35.28;94929.19;5033923;28;20892;-81
2021/09/12 07:27:49;;;;;;;8.40;5.20;;;;;;;25.22;36.32;94934.63;5033904;28;20437;-81
2021/09/12 07:30:16;;;;;;;5.87;4.83;;;;;;;25.24;36.81;94926.34;5034048;28;20451;-81
2021/09/12 07:32:44;;;;;;;4.53;4.10;;;;;;;25.25;37.55;94931.50;5033976;28;20453;-81
2021/09/12 07:35:11;;;;;;;9.23;5.00;;;;;;;25.32;36.19;94929.56;5033734;28;20536;-81
2021/09/12 07:37:38;;;;;;;6.17;4.70;;;;;;;25.08;37.67;94929.56;5033814;28;20531;-81
2021/09/12 07:40:08;;;;;;;13.20;5.13;;;;;;;24.32;38.33;94922.41;5034073;28;20476;-81
2021/09/12 07:42:36;;;;;;;7.33;5.27;;;;;;;24.32;38.74;94923.22;5015582;28;20819;-81
2021/09/12 07:45:04;;;;;;;8.37;4.77;;;;;;;24.61;38.55;94915.63;5033549;28;20523;-81
2021/09/12 07:47:30;;;;;;;5.73;4.50;;;;;;;24.78;38.31;94919.41;5014475;28;20969;-81
2021/09/12 07:49:57;;;;;;;6.40;4.90;;;;;;;24.93;38.63;94913.75;5033499;28;20539;-81
2021/09/12 07:52:24;;;;;;;10.13;4.40;;;;;;;25.06;38.34;94912.84;5033212;28;20541;-81
2021/09/12 07:54:51;;;;;;;5.13;4.73;;;;;;;25.08;38.24;94911.59;5033433;28;20467;-81
2021/09/12 07:57:18;;;;;;;5.33;4.83;;;;;;;25.18;38.57;94911.94;5033406;28;21007;-82
2021/09/12 07:59:46;;;;;;;9.53;5.67;;;;;;;25.28;37.68;94908.75;5033331;28;20442;-81
2021/09/12 08:02:13;;;;;;;5.20;4.70;;;;;;;25.41;37.53;94908.59;5033489;28;20941;-82
2021/09/12 08:04:40;;;;;;;7.53;4.87;;;;;;;24.82;38.73;94907.22;5033542;28;20456;-81
2021/09/12 08:07:07;;;;;;;9.20;5.07;;;;;;;24.82;38.43;94904.53;5014586;28;20572;-81
2021/09/12 08:09:35;;;;;;;5.60;4.90;;;;;;;24.60;38.69;94908.63;5033009;28;20528;-81
2021/09/12 08:12:02;;;;;;;13.00;5.57;;;;;;;24.44;39.67;94904.56;5033288;28;20520;-81
2021/09/12 08:14:29;;;;;;;6.00;5.17;;;;;;;24.71;38.57;94905.22;5033105;28;20527;-81
2021/09/12 08:16:57;;;;;;;10.60;4.70;;;;;;;24.91;37.18;94902.41;5014486;28;20492;-81
2021/09/12 08:19:24;;;;;;;8.40;6.27;;;;;;;24.90;38.18;94906.13;5033179;28;20536;-81
2021/09/12 08:21:51;;;;;;;7.10;5.10;;;;;;;25.12;38.08;94902.03;5033570;28;20446;-81
2021/09/12 08:24:18;;;;;;;6.83;5.73;;;;;;;25.46;37.13;94907.97;5032757;28;20449;-81
2021/09/12 08:26:45;;;;;;;6.60;5.00;;;;;;;25.69;38.41;94897.41;5032630;28;20842;-81
2021/09/12 08:29:12;;;;;;;9.13;5.20;;;;;;;25.77;37.66;94891.75;5014491;28;20964;-81
2021/09/12 08:31:39;;;;;;;6.00;4.93;;;;;;;25.56;38.31;94887.59;5033039;28;20460;-82
2021/09/12 08:34:07;;;;;;;5.17;4.67;;;;;;;25.76;37.42;94890.09;5032736;28;20450;-82
2021/09/12 08:36:34;;;;;;;7.30;5.33;;;;;;;25.31;36.73;94884.13;5032639;28;20453;-81
2021/09/12 08:39:01;;;;;;;7.23;5.30;;;;;;;25.31;36.38;94884.94;5033239;28;20453;-81
2021/09/12 08:41:28;;;;;;;16.63;5.33;;;;;;;25.47;36.65;94878.19;5032851;28;20525;-81
2021/09/12 08:43:55;;;;;;;6.23;5.30;;;;;;;25.54;38.35;94881.63;5030602;28;20449;-82
2021/09/12 08:46:22;;;;;;;10.37;5.33;;;;;;;25.73;38.45;94879.78;5030376;28;21016;-81
2021/09/12 08:48:49;;;;;;;5.70;4.77;;;;;;;25.89;38.71;94875.69;5032614;28;20450;-81
2021/09/12 08:51:17;;;;;;;9.80;5.43;;;;;;;26.07;38.18;94875.69;5032980;28;20451;-81
2021/09/12 08:53:44;;;;;;;5.80;5.30;;;;;;;26.24;37.65;94871.28;5032250;28;21045;-82
2021/09/12 08:56:11;;;;;;;6.03;5.23;;;;;;;26.01;36.97;94865.78;5032621;28;20449;-82
2021/09/12 08:58:38;;;;;;;7.27;5.53;;;;;;;26.16;36.57;94865.41;5032209;28;20442;-81
2021/09/12 09:01:05;;;;;;;5.33;4.83;;;;;;;26.21;36.45;94863.69;5032382;28;20521;-81
2021/09/12 09:03:36;;;;;;;6.17;5.60;;;;;;;26.07;36.45;94858.72;5032508;28;20448;-81
2021/09/12 09:06:14;;;;;;;13.83;6.17;;;;;;;26.04;37.89;94860.00;5032287;28;20505;-82
2021/09/12 09:08:56;;;;;;;7.20;4.90;;;;;;;26.15;37.22;94858.41;5032287;28;20457;-82
2021/09/12 09:11:31;;;;;;;8.80;5.33;;;;;;;26.27;37.74;94851.19;5032083;28;20446;-81
2021/09/12 09:14:13;;;;;;;7.27;6.53;;;;;;;25.88;36.68;94850.66;5032114;28;20454;-82
2021/09/12 09:16:41;;;;;;;10.60;6.10;;;;;;;25.91;36.64;94847.50;5032180;28;20458;-82
2021/09/12 09:19:09;;;;;;;6.40;5.17;;;;;;;26.01;37.12;94844.28;5032030;28;20937;-81
2021/09/12 09:21:41;;;;;;;7.50;6.33;;;;;;;26.19;36.92;94855.00;5032406;28;20443;-81
2021/09/12 09:24:13;;;;;;;10.57;5.77;;;;;;;26.15;36.59;94847.63;5032163;28;20473;-81
2021/09/12 09:26:41;;;;;;;6.40;5.53;;;;;;;26.13;36.92;94838.97;5032230;28;20486;-81
2021/09/12 09:29:09;;;;;;;7.07;5.33;;;;;;;26.24;36.72;94846.25;5032368;28;20450;-81
2021/09/12 09:31:37;;;;;;;10.17;5.10;;;;;;;26.35;36.31;94840.16;5031942;28;20450;-82
2021/09/12 09:34:18;;;;;;;8.10;5.30;;;;;;;26.47;34.94;94837.47;5029826;28;20968;-81
2021/09/12 09:36:46;;;;;;;6.20;5.23;;;;;;;26.52;35.39;94835.75;5032132;28;20948;-81
2021/09/12 09:39:16;;;;;;;6.67;5.40;;;;;;;26.28;35.05;94828.59;5031959;28;20545;-81
2021/09/12 09:41:43;;;;;;;8.80;5.40;;;;;;;26.35;35.21;94825.88;5032070;28;20443;-81
2021/09/12 09:44:13;;;;;;;10.00;5.30;;;;;;;26.33;34.68;94826.06;5032587;28;20525;-82
2021/09/12 09:46:43;;;;;;;6.57;5.17;;;;;;;26.24;33.77;94819.34;5031999;28;20573;-81
2021/09/12 09:49:28;;;;;;;6.20;4.83;;;;;;;26.16;32.57;94817.81;5032054;28;20453;-82
2021/09/12 09:51:57;;;;;;;9.40;5.13;;;;;;;26.24;32.35;94813.97;5031770;28;20546;-81
2021/09/12 09:54:28;;;;;;;5.03;4.43;;;;;;;26.39;33.35;94814.41;5031829;28;20478;-81
2021/09/12 09:56:55;;;;;;;5.97;5.10;;;;;;;26.52;32.13;94818.78;5031794;28;20529;-81
2021/09/12 09:59:25;;;;;;;19.80;5.03;;;;;;;26.65;32.25;94823.97;5031906;28;20501;-81
2021/09/12 10:01:54;;;;;;;7.53;5.27;;;;;;;26.67;30.71;94819.16;5031811;28;20446;-82
2021/09/12 10:04:23;;;;;;;6.13;4.83;;;;;;;26.76;31.22;94809.69;5031689;28;20446;-82
2021/09/12 10:06:51;;;;;;;5.23;4.83;;;;;;;26.40;31.82;94812.56;5031724;28;20487;-81
2021/09/12 10:09:19;;;;;;;6.83;5.60;;;;;;;26.46;32.99;94809.75;5031873;28;20540;-81
2021/09/12 10:11:53;;;;;;;5.60;5.10;;;;;;;26.40;32.23;94807.16;5034561;28;20477;-81
2021/09/12 10:14:26;;;;;;;6.40;5.10;;;;;;;26.28;32.82;94798.19;5035230;28;20960;-82
2021/09/12 10:16:54;;;;;;;7.40;5.00;;;;;;;26.34;32.29;94798.16;5035505;28;20451;-81
2021/09/12 10:19:38;;;;;;;8.90;5.70;;;;;;;26.47;32.49;94797.94;5035203;28;20990;-81
2021/09/12 10:22:15;;;;;;;6.80;5.20;;;;;;;26.49;32.05;94793.13;5035130;28;20529;-81
2021/09/12 10:25:08;;;;;;;5.67;4.83;;;;;;;26.53;32.01;94791.63;5035063;28;21015;-81
2021/09/12 10:27:38;;;;;;;5.70;5.20;;;;;;;26.58;33.00;94800.88;5035158;28;20926;-81
2021/09/12 10:30:20;;;;;;;6.23;4.50;;;;;;;26.48;32.28;94791.50;5034907;28;20456;-82
2021/09/12 10:32:47;;;;;;;14.10;4.83;;;;;;;26.05;31.58;94798.97;5034864;28;20445;-82
2021/09/12 10:35:16;;;;;;;5.13;4.73;;;;;;;25.90;32.77;94788.59;5035361;28;20525;-82
2021/09/12 10:38:00;;;;;;;7.27;4.23;;;;;;;25.91;31.14;94782.97;5034693;28;20453;-82
2021/09/12 10:41:13;;;;;;;4.17;3.77;;;;;;;25.67;31.21;94786.59;5034935;28;21015;-81
2021/09/12 10:43:46;;;;;;;4.40;4.00;;;;;;;25.61;30.51;94782.09;5034680;28;20454;-81
2021/09/12 10:46:27;;;;;;;4.60;3.43;;;;;;;25.52;30.45;94778.09;5034503;28;21015;-82
2021/09/12 10:49:08;;;;;;;4.00;3.60;;;;;;;25.72;30.46;94780.53;5034814;28;20515;-82
2021/09/12 10:51:37;;;;;;;4.60;4.20;;;;;;;25.80;31.66;94780.25;5035020;28;20985;-82
2021/09/12 10:54:04;;;;;;;5.40;4.90;;;;;;;25.81;31.51;94780.03;5034817;28;20980;-82
2021/09/12 10:56:35;;;;;;;4.87;3.90;;;;;;;25.81;31.46;94781.91;5034847;28;20534;-82
2021/09/12 10:59:07;;;;;;;9.07;5.00;;;;;;;25.85;32.73;94775.84;5034653;28;20521;-82
2021/09/12 11:01:36;;;;;;;5.00;4.57;;;;;;;25.86;32.81;94773.97;5034439;28;20446;-81
2021/09/12 11:04:05;;;;;;;8.20;4.87;;;;;;;25.88;31.25;94775.38;5034405;28;20965;-81
2021/09/12 11:06:33;;;;;;;7.80;5.50;;;;;;;25.75;31.36;94775.56;5034367;28;20599;-81
2021/09/12 11:09:01;;;;;;;4.20;3.80;;;;;;;25.78;30.31;94774.28;5015957;28;20442;-81
2021/09/12 11:11:28;;;;;;;4.40;3.90;;;;;;;25.70;30.23;94774.56;5034336;28;20446;-82
2021/09/12 11:13:57;;;;;;;4.00;3.70;;;;;;;25.75;29.87;94767.50;5034229;28;20446;-81
2021/09/12 11:16:27;;;;;;;5.57;3.43;;;;;;;25.97;30.29;94757.03;5034045;28;20446;-82
2021/09/12 11:18:58;;;;;;;6.90;3.80;;;;;;;26.11;29.64;94755.81;5034085;28;20865;-81
2021/09/12 11:21:32;;;;;;;5.47;4.00;;;;;;;26.30;29.46;94750.34;5033973;28;20550;-81
2021/09/12 11:24:02;;;;;;;6.33;3.80;;;;;;;26.40;29.96;94751.47;5034167;28;20929;-81
2021/09/12 11:26:37;;;;;;;9.30;4.67;;;;;;;26.43;31.34;94742.94;5033977;28;20486;-81
2021/09/12 11:29:06;;;;;;;12.80;4.80;;;;;;;26.47;30.66;94741.41;5034130;28;20446;-81
2021/09/12 11:31:36;;;;;;;6.30;5.27;;;;;;;26.45;31.50;94743.53;5034021;28;20526;-81
2021/09/12 11:34:04;;;;;;;5.23;4.20;;;;;;;26.39;31.58;94741.75;5033711;28;20488;-82
2021/09/12 11:36:48;;;;;;;6.70;4.63;;;;;;;26.31;31.07;94738.53;5033679;28;20453;-82